createdAt,value
2018-01-05T00:00:29.752Z,10.20
2018-01-05T00:02:57.282Z,10.10
2018-01-05T00:05:24.865Z,10.10
2018-01-05T00:07:52.358Z,10.10
2018-01-05T00:10:20.676Z,9.20
2018-01-05T00:12:48.168Z,9.20
2018-01-05T00:15:15.724Z,8.90
2018-01-05T00:17:43.213Z,8.60
2018-01-05T00:20:11.486Z,8.30
2018-01-05T00:22:39.782Z,8.20
2018-01-05T00:25:07.353Z,8.20
2018-01-05T00:27:34.888Z,8.10
2018-01-05T00:30:03.216Z,7.90
2018-01-05T00:32:30.771Z,7.90
2018-01-05T00:34:58.262Z,7.90
2018-01-05T00:37:25.859Z,7.80
2018-01-05T00:39:53.354Z,7.80
2018-01-05T00:42:20.882Z,7.80
2018-01-05T00:44:48.374Z,7.70
2018-01-05T00:47:15.983Z,7.70
2018-01-05T00:49:43.541Z,7.70
2018-01-05T00:52:11.098Z,7.70
2018-01-05T00:54:38.594Z,7.70
2018-01-05T00:57:06.122Z,7.70
2018-01-05T00:59:33.614Z,7.60
2018-01-05T01:02:01.122Z,7.60
2018-01-05T01:04:29.425Z,7.60
2018-01-05T01:06:56.935Z,7.60
2018-01-05T01:09:24.422Z,7.80
2018-01-05T01:11:51.942Z,7.80
2018-01-05T01:14:19.430Z,7.80
2018-01-05T01:16:47.785Z,7.90
2018-01-05T01:19:15.247Z,7.90
2018-01-05T01:21:43.530Z,8.00
2018-01-05T01:24:11.790Z,8.10
2018-01-05T01:26:39.299Z,8.10
2018-01-05T01:29:06.790Z,8.10
2018-01-05T01:31:34.297Z,8.10
2018-01-05T01:34:02.550Z,8.10
2018-01-05T01:36:30.858Z,8.20
2018-01-05T01:38:58.418Z,8.10
2018-01-05T01:41:25.931Z,8.10
2018-01-05T01:43:53.534Z,8.10
2018-01-05T01:46:21.042Z,8.10
2018-01-05T01:48:49.358Z,8.10
2018-01-05T01:51:16.877Z,8.00
2018-01-05T01:53:44.379Z,7.90
2018-01-05T01:56:11.894Z,7.90
2018-01-05T01:58:39.386Z,7.80
2018-01-05T02:01:07.659Z,7.70
2018-01-05T02:03:35.953Z,7.60
2018-01-05T02:06:03.470Z,7.60
2018-01-05T02:08:31.791Z,7.40
2018-01-05T02:10:59.305Z,7.40
2018-01-05T02:13:26.903Z,7.40
2018-01-05T02:15:54.394Z,7.30
2018-01-05T02:18:21.921Z,7.30
2018-01-05T02:20:49.414Z,7.30
2018-01-05T02:23:16.940Z,7.20
2018-01-05T02:25:44.510Z,7.30
2018-01-05T02:28:12.054Z,7.20
2018-01-05T02:30:39.546Z,7.20
2018-01-05T02:33:07.058Z,7.10
2018-01-05T02:35:35.344Z,7.20
2018-01-05T02:38:02.858Z,7.20
2018-01-05T02:40:31.119Z,7.10
2018-01-05T02:42:59.555Z,7.10
2018-01-05T02:45:27.125Z,7.00
2018-01-05T02:47:54.650Z,7.10
2018-01-05T02:50:22.958Z,7.10
2018-01-05T02:52:50.475Z,7.10
2018-01-05T02:55:17.966Z,7.10
2018-01-05T02:57:45.531Z,7.20
2018-01-05T03:00:13.027Z,7.20
2018-01-05T03:02:40.534Z,7.20
2018-01-05T03:05:08.798Z,7.20
2018-01-05T03:07:37.074Z,7.20
2018-01-05T03:10:05.388Z,7.10
2018-01-05T03:12:32.905Z,7.10
2018-01-05T03:15:01.166Z,7.00
2018-01-05T03:17:28.771Z,7.00
2018-01-05T03:19:56.266Z,7.00
2018-01-05T03:22:23.782Z,7.00
2018-01-05T03:24:51.341Z,7.00
2018-01-05T03:27:18.898Z,7.10
2018-01-05T03:29:46.633Z,7.20
2018-01-05T03:32:14.150Z,7.20
2018-01-05T03:34:41.642Z,7.10
2018-01-05T03:37:09.158Z,7.20
2018-01-05T03:39:36.657Z,7.20
2018-01-05T03:42:04.250Z,7.20
2018-01-05T03:44:32.505Z,7.30
2018-01-05T03:47:00.782Z,7.40
2018-01-05T03:49:29.083Z,7.40
2018-01-05T03:51:56.646Z,7.40
2018-01-05T03:54:24.182Z,7.40
2018-01-05T03:56:52.438Z,7.40
2018-01-05T03:59:20.737Z,7.40
2018-01-05T04:01:49.001Z,7.40
2018-01-05T04:04:16.587Z,7.40
2018-01-05T04:06:44.078Z,7.40
2018-01-05T04:09:11.603Z,7.50
2018-01-05T04:11:39.102Z,7.60
2018-01-05T04:14:06.610Z,7.60
2018-01-05T04:16:34.873Z,7.80
2018-01-05T04:19:03.147Z,7.80
2018-01-05T04:21:31.446Z,7.80
2018-01-05T04:23:59.010Z,7.80
2018-01-05T04:26:26.497Z,7.80
2018-01-05T04:28:54.027Z,7.70
2018-01-05T04:31:21.523Z,7.70
2018-01-05T04:33:49.034Z,7.70
2018-01-05T04:36:16.603Z,7.70
2018-01-05T04:38:44.169Z,7.60
2018-01-05T04:41:11.671Z,7.70
2018-01-05T04:43:39.179Z,7.60
2018-01-05T04:46:07.442Z,7.40
2018-01-05T04:48:35.718Z,7.30
2018-01-05T04:51:03.999Z,7.20
2018-01-05T04:53:31.518Z,7.20
2018-01-05T04:55:59.006Z,7.20
2018-01-05T04:58:27.291Z,7.20
2018-01-05T05:00:54.786Z,7.20
2018-01-05T05:03:22.294Z,7.30
2018-01-05T05:05:50.851Z,7.20
2018-01-05T05:08:18.362Z,7.20
2018-01-05T05:10:45.916Z,7.20
2018-01-05T05:13:13.427Z,7.20
2018-01-05T05:15:41.027Z,7.20
2018-01-05T05:18:08.905Z,7.30
2018-01-05T05:20:36.401Z,7.30
2018-01-05T05:23:03.919Z,7.20
2018-01-05T05:25:31.414Z,7.10
2018-01-05T05:27:58.928Z,7.10
2018-01-05T05:30:26.427Z,7.10
2018-01-05T05:32:53.933Z,7.00
2018-01-05T05:35:22.213Z,7.30
2018-01-05T05:37:49.727Z,7.20
2018-01-05T05:40:17.234Z,7.30
2018-01-05T05:42:44.742Z,7.20
2018-01-05T05:45:12.246Z,7.40
2018-01-05T05:47:39.747Z,7.50
2018-01-05T05:50:07.254Z,7.50
2018-01-05T05:52:35.510Z,7.50
2018-01-05T05:55:03.794Z,7.50
2018-01-05T05:57:32.086Z,7.50
2018-01-05T05:59:59.596Z,7.40
2018-01-05T06:02:27.530Z,7.30
2018-01-05T06:04:55.038Z,7.20
2018-01-05T06:07:22.631Z,7.20
2018-01-05T06:09:50.142Z,7.10
2018-01-05T06:12:17.634Z,7.00
2018-01-05T06:14:45.918Z,7.00
2018-01-05T06:17:14.173Z,7.00
2018-01-05T06:19:41.682Z,6.90
2018-01-05T06:22:09.178Z,6.90
2018-01-05T06:24:36.687Z,7.00
2018-01-05T06:27:04.179Z,7.00
2018-01-05T06:29:31.696Z,7.10
2018-01-05T06:31:59.191Z,7.20
2018-01-05T06:34:26.702Z,7.10
2018-01-05T06:36:54.972Z,7.00
2018-01-05T06:39:23.248Z,7.00
2018-01-05T06:41:50.767Z,7.00
2018-01-05T06:44:18.375Z,7.00
2018-01-05T06:46:45.941Z,6.90
2018-01-05T06:49:13.495Z,7.00
2018-01-05T06:51:40.985Z,6.80
2018-01-05T06:54:08.498Z,6.90
2018-01-05T06:56:36.767Z,6.80
2018-01-05T06:59:05.059Z,6.80
2018-01-05T07:01:32.618Z,6.80
2018-01-05T07:04:00.139Z,6.70
2018-01-05T07:06:27.633Z,6.80
2018-01-05T07:08:55.194Z,6.90
2018-01-05T07:11:22.686Z,6.90
2018-01-05T07:13:50.194Z,7.00
2018-01-05T07:16:18.491Z,6.90
2018-01-05T07:18:46.009Z,6.80
2018-01-05T07:21:13.502Z,6.90
2018-01-05T07:23:41.011Z,6.80
2018-01-05T07:26:08.506Z,6.90
2018-01-05T07:28:37.118Z,6.90
2018-01-05T07:31:04.608Z,6.90
2018-01-05T07:33:32.122Z,7.00
2018-01-05T07:35:59.639Z,7.00
2018-01-05T07:38:28.674Z,7.10
2018-01-05T07:40:56.596Z,7.10
2018-01-05T07:43:24.200Z,7.20
2018-01-05T07:45:51.759Z,7.30
2018-01-05T07:48:19.250Z,7.30
2018-01-05T07:50:47.147Z,7.30
2018-01-05T07:53:14.637Z,7.40
2018-01-05T07:55:42.150Z,7.50
2018-01-05T07:58:09.660Z,7.50
2018-01-05T08:00:37.173Z,7.60
2018-01-05T08:03:04.770Z,7.70
2018-01-05T08:05:33.151Z,7.80
2018-01-05T08:08:00.714Z,7.80
2018-01-05T08:10:28.275Z,7.90
2018-01-05T08:12:55.771Z,8.00
2018-01-05T08:15:24.076Z,8.40
2018-01-05T08:17:51.574Z,8.30
2018-01-05T08:20:19.090Z,8.40
2018-01-05T08:22:46.746Z,8.70
2018-01-05T08:25:15.043Z,8.80
2018-01-05T08:27:43.296Z,8.90
2018-01-05T08:30:10.803Z,8.90
2018-01-05T08:32:38.303Z,9.00
2018-01-05T08:35:05.817Z,9.00
2018-01-05T08:37:33.330Z,9.10
2018-01-05T08:40:00.854Z,9.00
2018-01-05T08:42:28.343Z,9.10
2018-01-05T08:44:55.854Z,9.10
2018-01-05T08:47:23.350Z,9.20
2018-01-05T08:49:50.858Z,9.30
2018-01-05T08:52:18.346Z,9.30
2018-01-05T08:54:45.854Z,9.40
2018-01-05T08:57:14.111Z,9.40
2018-01-05T08:59:41.618Z,9.40
2018-01-05T09:02:09.114Z,9.50
2018-01-05T09:04:36.942Z,9.50
2018-01-05T09:07:04.439Z,9.50
2018-01-05T09:09:31.950Z,9.40
2018-01-05T09:11:59.450Z,9.50
2018-01-05T09:14:26.963Z,9.60
2018-01-05T09:16:54.467Z,9.80
2018-01-05T09:19:22.003Z,10.00
2018-01-05T09:21:49.502Z,10.20
2018-01-05T09:24:17.003Z,10.20
2018-01-05T09:26:44.521Z,10.20
2018-01-05T09:29:12.018Z,10.30
2018-01-05T09:31:39.534Z,10.30
2018-01-05T09:34:07.035Z,10.40
2018-01-05T09:36:34.550Z,10.30
2018-01-05T09:39:02.045Z,10.40
2018-01-05T09:41:29.566Z,10.40
2018-01-05T09:43:57.058Z,10.50
2018-01-05T09:46:24.579Z,10.50
2018-01-05T09:48:52.074Z,10.60
2018-01-05T09:51:19.642Z,10.80
2018-01-05T09:53:47.875Z,10.90
2018-01-05T09:56:15.390Z,10.90
2018-01-05T09:58:42.883Z,11.00
2018-01-05T10:01:10.398Z,11.00
2018-01-05T10:03:37.895Z,10.90
2018-01-05T10:06:05.410Z,10.90
2018-01-05T10:08:32.904Z,10.90
2018-01-05T10:11:00.424Z,11.10
2018-01-05T10:13:27.921Z,11.10
2018-01-05T10:15:55.443Z,11.00
2018-01-05T10:18:22.948Z,11.00
2018-01-05T10:20:50.463Z,11.00
2018-01-05T10:23:17.967Z,11.10
2018-01-05T10:25:45.495Z,11.30
2018-01-05T10:28:13.387Z,11.30
2018-01-05T10:30:40.899Z,11.30
2018-01-05T10:33:08.403Z,11.40
2018-01-05T10:35:35.918Z,11.50
2018-01-05T10:38:03.420Z,11.60
2018-01-05T10:40:30.930Z,11.60
2018-01-05T10:42:58.797Z,11.70
2018-01-05T10:45:26.306Z,11.70
2018-01-05T10:47:53.822Z,12.00
2018-01-05T10:50:21.320Z,12.00
2018-01-05T10:52:48.830Z,11.90
2018-01-05T10:55:16.322Z,12.00
2018-01-05T10:57:43.834Z,12.00
2018-01-05T11:00:11.330Z,11.70
2018-01-05T11:02:38.838Z,11.80
2018-01-05T11:05:07.107Z,12.10
2018-01-05T11:07:35.382Z,12.40
2018-01-05T11:10:03.646Z,12.40
2018-01-05T11:12:31.190Z,12.40
2018-01-05T11:14:58.682Z,12.50
2018-01-05T11:17:26.963Z,12.60
2018-01-05T11:19:54.457Z,12.60
2018-01-05T11:22:21.966Z,12.40
2018-01-05T11:24:50.227Z,12.40
2018-01-05T11:27:17.742Z,12.30
2018-01-05T11:29:45.244Z,12.50
2018-01-05T11:32:12.754Z,12.40
2018-01-05T11:34:40.254Z,12.40
2018-01-05T11:37:07.775Z,12.30
2018-01-05T11:39:35.275Z,12.10
2018-01-05T11:42:02.796Z,12.00
2018-01-05T11:44:31.066Z,12.20
2018-01-05T11:46:58.579Z,12.10
2018-01-05T11:49:26.843Z,11.90
2018-01-05T11:51:54.361Z,11.90
2018-01-05T11:54:21.863Z,12.00
2018-01-05T11:56:50.141Z,12.10
2018-01-05T11:59:18.414Z,12.10
2018-01-05T12:01:46.699Z,12.20
2018-01-05T12:04:14.966Z,12.10
2018-01-05T12:06:43.254Z,12.00
2018-01-05T12:09:11.518Z,12.00
2018-01-05T12:11:39.042Z,11.90
2018-01-05T12:14:06.534Z,12.00
2018-01-05T12:16:34.801Z,11.90
2018-01-05T12:19:02.318Z,11.80
2018-01-05T12:21:29.810Z,11.80
2018-01-05T12:23:57.323Z,11.70
2018-01-05T12:26:24.822Z,11.70
2018-01-05T12:28:52.336Z,11.60
2018-01-05T12:31:19.838Z,11.60
2018-01-05T12:33:47.356Z,11.70
2018-01-05T12:36:14.855Z,11.80
2018-01-05T12:38:43.879Z,11.90
2018-01-05T12:41:12.152Z,11.90
2018-01-05T12:43:40.434Z,12.00
2018-01-05T12:46:08.690Z,11.90
2018-01-05T12:48:36.211Z,11.90
2018-01-05T12:51:03.716Z,11.80
2018-01-05T12:53:31.994Z,11.60
2018-01-05T12:56:00.258Z,11.70
2018-01-05T12:58:28.548Z,11.80
2018-01-05T13:00:56.806Z,11.70
2018-01-05T13:03:24.330Z,11.70
2018-01-05T13:05:51.831Z,11.70
2018-01-05T13:08:20.090Z,11.60
2018-01-05T13:10:47.603Z,11.60
2018-01-05T13:13:15.102Z,11.70
2018-01-05T13:15:42.618Z,11.70
2018-01-05T13:18:10.119Z,11.60
2018-01-05T13:20:37.631Z,11.80
2018-01-05T13:23:05.130Z,11.70
2018-01-05T13:25:32.655Z,11.50
2018-01-05T13:28:00.154Z,11.60
2018-01-05T13:30:27.675Z,11.60
2018-01-05T13:32:55.174Z,11.50
2018-01-05T13:35:22.686Z,11.40
2018-01-05T13:37:50.184Z,11.40
2018-01-05T13:40:17.712Z,11.40
2018-01-05T13:42:45.213Z,11.30
2018-01-05T13:45:12.730Z,11.40
2018-01-05T13:47:40.684Z,11.30
2018-01-05T13:50:08.190Z,11.20
2018-01-05T13:52:35.687Z,11.20
2018-01-05T13:55:03.199Z,11.20
2018-01-05T13:57:30.696Z,11.10
2018-01-05T13:59:58.245Z,11.00
2018-01-05T14:02:25.736Z,10.90
2018-01-05T14:04:53.243Z,11.00
2018-01-05T14:07:20.755Z,11.00
2018-01-05T14:09:48.250Z,10.90
2018-01-05T14:12:15.767Z,10.90
2018-01-05T14:14:43.263Z,10.90
2018-01-05T14:17:10.778Z,10.90
2018-01-05T14:19:38.279Z,10.80
2018-01-05T14:22:06.151Z,10.90
2018-01-05T14:24:33.650Z,10.90
2018-01-05T14:27:01.162Z,10.90
2018-01-05T14:29:28.662Z,10.80
2018-01-05T14:31:56.174Z,10.70
2018-01-05T14:34:23.671Z,10.60
2018-01-05T14:36:51.955Z,10.50
2018-01-05T14:39:19.835Z,10.50
2018-01-05T14:41:47.351Z,10.50
2018-01-05T14:44:14.847Z,10.70
2018-01-05T14:46:42.362Z,10.80
2018-01-05T14:49:09.867Z,10.70
2018-01-05T14:51:37.386Z,10.60
2018-01-05T14:54:05.664Z,10.50
2018-01-05T14:56:33.954Z,10.50
2018-01-05T14:59:02.214Z,10.40
2018-01-05T15:01:30.500Z,10.40
2018-01-05T15:03:58.774Z,10.20
2018-01-05T15:06:27.063Z,10.10
2018-01-05T15:08:54.570Z,10.10
2018-01-05T15:11:22.091Z,10.10
2018-01-05T15:13:49.594Z,10.10
2018-01-05T15:16:17.114Z,10.10
2018-01-05T15:18:44.622Z,10.10
2018-01-05T15:21:12.141Z,9.90
2018-01-05T15:23:39.634Z,9.80
2018-01-05T15:26:07.137Z,9.80
2018-01-05T15:28:34.653Z,9.80
2018-01-05T15:31:02.142Z,9.80
2018-01-05T15:33:29.649Z,9.90
2018-01-05T15:35:57.147Z,9.80
2018-01-05T15:38:25.422Z,9.70
2018-01-05T15:40:53.680Z,9.70
2018-01-05T15:43:21.188Z,9.70
2018-01-05T15:45:48.682Z,9.60
2018-01-05T15:48:16.199Z,9.60
2018-01-05T15:50:43.735Z,9.50
2018-01-05T15:53:11.263Z,9.50
2018-01-05T15:55:38.754Z,9.50
2018-01-05T15:58:07.034Z,9.50
2018-01-05T16:00:34.527Z,9.50
2018-01-05T16:03:02.038Z,9.40
2018-01-05T16:05:30.342Z,9.50
2018-01-05T16:07:57.896Z,9.40
2018-01-05T16:10:25.394Z,9.50
2018-01-05T16:12:52.907Z,9.50
2018-01-05T16:15:20.399Z,9.40
2018-01-05T16:17:47.953Z,9.40
2018-01-05T16:20:15.447Z,9.30
2018-01-05T16:22:42.954Z,9.30
2018-01-05T16:25:10.455Z,9.30
2018-01-05T16:27:37.964Z,9.20
2018-01-05T16:30:05.464Z,9.30
2018-01-05T16:32:33.016Z,9.20
2018-01-05T16:35:01.320Z,9.10
2018-01-05T16:37:28.836Z,9.10
2018-01-05T16:39:56.326Z,9.20
2018-01-05T16:42:23.839Z,9.10
2018-01-05T16:44:51.333Z,9.00
2018-01-05T16:47:18.839Z,9.00
2018-01-05T16:49:46.334Z,9.00
2018-01-05T16:52:13.880Z,9.00
2018-01-05T16:54:41.379Z,9.00
2018-01-05T16:57:08.927Z,9.00
2018-01-05T16:59:36.422Z,9.00
2018-01-05T17:02:03.942Z,9.00
2018-01-05T17:04:31.434Z,9.00
2018-01-05T17:06:59.703Z,9.00
2018-01-05T17:09:28.023Z,9.00
2018-01-05T17:11:55.550Z,8.90
2018-01-05T17:14:23.105Z,8.90
2018-01-05T17:16:51.366Z,9.00
2018-01-05T17:19:19.699Z,9.00
2018-01-05T17:21:47.246Z,9.00
2018-01-05T17:24:14.786Z,9.00
2018-01-05T17:26:42.303Z,9.00
2018-01-05T17:29:09.842Z,9.00
2018-01-05T17:31:37.409Z,9.00
2018-01-05T17:34:04.923Z,9.00
2018-01-05T17:36:32.469Z,9.00
2018-01-05T17:39:00.822Z,9.10
2018-01-05T17:41:28.352Z,9.10
2018-01-05T17:43:55.923Z,9.20
2018-01-05T17:46:23.434Z,9.20
2018-01-05T17:48:51.042Z,9.30
2018-01-05T17:51:18.595Z,9.40
2018-01-05T17:53:46.123Z,9.40
2018-01-05T17:56:13.628Z,9.50
2018-01-05T17:58:41.195Z,9.60
2018-01-05T18:01:08.751Z,9.70
2018-01-05T18:03:37.047Z,9.70
2018-01-05T18:06:04.592Z,9.70
2018-01-05T18:08:32.105Z,9.60
2018-01-05T18:10:59.636Z,9.60
2018-01-05T18:13:27.143Z,9.60
2018-01-05T18:15:54.691Z,9.50
2018-01-05T18:18:22.248Z,9.30
2018-01-05T18:20:49.786Z,9.20
2018-01-05T18:23:17.386Z,9.10
2018-01-05T18:25:44.917Z,9.10
2018-01-05T18:28:12.488Z,9.10
2018-01-05T18:30:39.978Z,9.20
2018-01-05T18:33:08.315Z,9.20
2018-01-05T18:35:35.806Z,9.20
2018-01-05T18:38:03.358Z,9.30
2018-01-05T18:40:30.918Z,9.30
2018-01-05T18:42:58.446Z,9.60
2018-01-05T18:45:25.974Z,9.50
2018-01-05T18:47:53.518Z,9.50
2018-01-05T18:50:21.850Z,9.60
2018-01-05T18:52:49.394Z,9.60
2018-01-05T18:55:16.974Z,9.60
2018-01-05T18:57:44.536Z,9.60
2018-01-05T19:00:12.152Z,9.60
2018-01-05T19:02:39.674Z,9.50
2018-01-05T19:05:07.287Z,9.50
2018-01-05T19:07:34.852Z,9.50
2018-01-05T19:10:02.436Z,9.50
2018-01-05T19:12:29.998Z,9.50
2018-01-05T19:14:57.529Z,9.40
2018-01-05T19:17:25.077Z,9.40
2018-01-05T19:19:52.625Z,9.50
2018-01-05T19:22:20.114Z,9.50
2018-01-05T19:24:47.666Z,9.60
2018-01-05T19:27:15.210Z,9.60
2018-01-05T19:29:42.775Z,9.70
2018-01-05T19:32:10.375Z,9.70
2018-01-05T19:34:38.721Z,9.80
2018-01-05T19:37:06.265Z,9.80
2018-01-05T19:39:33.821Z,9.90
2018-01-05T19:42:01.385Z,10.00
2018-01-05T19:44:28.952Z,10.00
2018-01-05T19:46:56.537Z,10.00
2018-01-05T19:49:24.109Z,10.00
2018-01-05T19:51:51.653Z,10.00
2018-01-05T19:54:19.220Z,10.20
2018-01-05T19:56:46.765Z,10.20
2018-01-05T19:59:14.372Z,10.10
2018-01-05T20:01:42.003Z,10.20
2018-01-05T20:04:09.569Z,10.20
2018-01-05T20:06:37.127Z,10.20
2018-01-05T20:09:04.688Z,10.20
2018-01-05T20:11:32.250Z,10.20
2018-01-05T20:13:59.805Z,10.20
2018-01-05T20:16:27.365Z,10.10
2018-01-05T20:18:54.911Z,10.10
2018-01-05T20:21:22.475Z,10.20
2018-01-05T20:23:50.030Z,10.20
2018-01-05T20:26:17.597Z,10.40
2018-01-05T20:28:45.141Z,10.20
2018-01-05T20:31:12.698Z,9.80
2018-01-05T20:33:40.238Z,9.60
2018-01-05T20:36:07.806Z,9.30
2018-01-05T20:38:35.365Z,9.10
2018-01-05T20:41:02.931Z,9.00
2018-01-05T20:43:30.482Z,8.90
2018-01-05T20:45:58.047Z,8.80
2018-01-05T20:48:25.586Z,8.70
2018-01-05T20:50:53.136Z,8.60
2018-01-05T20:53:20.677Z,8.60
2018-01-05T20:55:49.014Z,8.40
2018-01-05T20:58:16.559Z,8.40
2018-01-05T21:00:44.126Z,8.30
2018-01-05T21:03:11.665Z,8.20
2018-01-05T21:05:39.221Z,8.00
2018-01-05T21:08:06.714Z,8.00
2018-01-05T21:10:34.273Z,8.00
2018-01-05T21:13:01.822Z,7.90
2018-01-05T21:15:29.372Z,7.80
2018-01-05T21:17:56.946Z,7.70
2018-01-05T21:20:24.505Z,7.60
2018-01-05T21:22:52.045Z,7.60
2018-01-05T21:25:19.611Z,7.50
2018-01-05T21:27:47.159Z,7.40
2018-01-05T21:30:14.700Z,7.40
2018-01-05T21:32:42.241Z,7.40
2018-01-05T21:35:10.582Z,7.40
2018-01-05T21:37:38.121Z,7.40
2018-01-05T21:40:05.679Z,7.40
2018-01-05T21:42:33.214Z,7.40
2018-01-05T21:45:00.784Z,7.30
2018-01-05T21:47:28.321Z,7.30
2018-01-05T21:49:55.881Z,7.30
2018-01-05T21:52:23.426Z,7.30
2018-01-05T21:54:51.738Z,7.30
2018-01-05T21:57:19.290Z,7.30
2018-01-05T21:59:46.845Z,7.30
2018-01-05T22:02:14.414Z,7.30
2018-01-05T22:04:41.971Z,7.30
2018-01-05T22:07:09.561Z,7.30
2018-01-05T22:09:37.092Z,7.30
2018-01-05T22:12:04.650Z,7.40
2018-01-05T22:14:32.197Z,7.30
2018-01-05T22:16:59.753Z,7.30
2018-01-05T22:19:27.283Z,7.30
2018-01-05T22:21:55.644Z,7.30
2018-01-05T22:24:23.185Z,7.30
2018-01-05T22:26:50.741Z,7.30
2018-01-05T22:29:18.285Z,7.30
2018-01-05T22:31:45.842Z,7.30
2018-01-05T22:34:13.386Z,7.30
2018-01-05T22:36:40.941Z,7.30
2018-01-05T22:39:08.477Z,7.30
2018-01-05T22:41:36.806Z,7.30
2018-01-05T22:44:04.354Z,7.20
2018-01-05T22:46:31.921Z,7.20
2018-01-05T22:48:59.460Z,7.20
2018-01-05T22:51:27.017Z,7.30
2018-01-05T22:53:54.562Z,7.20
2018-01-05T22:56:22.889Z,7.20
2018-01-05T22:58:50.438Z,7.20
2018-01-05T23:01:18.004Z,7.20
2018-01-05T23:03:45.498Z,7.10
2018-01-05T23:06:13.823Z,7.10
2018-01-05T23:08:41.409Z,7.10
2018-01-05T23:11:08.970Z,7.10
2018-01-05T23:13:36.514Z,7.10
2018-01-05T23:16:04.074Z,7.10
2018-01-05T23:18:31.621Z,7.10
2018-01-05T23:20:59.177Z,7.10
2018-01-05T23:23:27.006Z,7.10
2018-01-05T23:25:55.352Z,7.00
2018-01-05T23:28:22.902Z,7.00
2018-01-05T23:30:50.447Z,7.00
2018-01-05T23:33:18.035Z,7.00
2018-01-05T23:35:46.349Z,7.00
2018-01-05T23:38:14.625Z,7.00
2018-01-05T23:40:42.212Z,7.00
2018-01-05T23:43:09.773Z,7.00
2018-01-05T23:45:37.326Z,7.00
2018-01-05T23:48:04.885Z,7.00
2018-01-05T23:50:32.458Z,7.00
2018-01-05T23:53:00.022Z,7.00
2018-01-05T23:55:27.565Z,7.00
2018-01-05T23:57:55.145Z,7.00
